Time;durP1;ratioP1;P1;durP2;ratioP2;P2;SDS_P1;SDS_P2;PMS_P1;PMS_P2;Temp;Humidity;BMP_temperature;BMP_pressure;BME280_temperature;BME280_humidity;BME280_pressure;Samples;Min_cycle;Max_cycle;Signal;HPM_P1;HPM_P2
2020/12/23 00:02:23;;;;;;;21.93;10.57;;;11.50;99.90;;;;;;5015227;28;20602;-75
2020/12/23 00:04:49;;;;;;;18.90;10.33;;;11.50;99.90;;;;;;5018470;28;20201;-75
2020/12/23 00:07:16;;;;;;;17.10;10.50;;;11.50;99.90;;;;;;5016120;28;20229;-75
2020/12/23 00:09:43;;;;;;;20.43;10.53;;;11.50;99.90;;;;;;5015194;28;20235;-74
2020/12/23 00:12:10;;;;;;;16.10;10.10;;;11.50;99.90;;;;;;5019558;28;20585;-74
2020/12/23 00:14:38;;;;;;;20.33;10.13;;;11.50;99.90;;;;;;5017630;28;20197;-75
2020/12/23 00:17:04;;;;;;;17.63;9.43;;;11.50;99.90;;;;;;5016997;28;20234;-75
2020/12/23 00:19:33;;;;;;;17.30;10.87;;;11.50;99.90;;;;;;5015026;28;20685;-75
2020/12/23 00:22:02;;;;;;;19.73;12.07;;;11.40;99.90;;;;;;5023828;28;20232;-74
2020/12/23 00:24:29;;;;;;;23.03;11.23;;;11.50;99.90;;;;;;5025018;28;20294;-75
2020/12/23 00:26:55;;;;;;;17.83;11.23;;;11.50;99.90;;;;;;5011602;28;20273;-75
2020/12/23 00:29:21;;;;;;;20.57;11.77;;;11.50;99.90;;;;;;5024462;28;20215;-75
2020/12/23 00:31:51;;;;;;;18.90;12.17;;;11.60;99.90;;;;;;5020699;28;20658;-75
2020/12/23 00:34:18;;;;;;;21.73;11.90;;;11.60;99.90;;;;;;5033803;28;20245;-75
2020/12/23 00:36:44;;;;;;;22.07;11.60;;;11.50;99.90;;;;;;5008507;28;20642;-74
2020/12/23 00:39:11;;;;;;;21.93;12.93;;;11.50;99.90;;;;;;5018517;28;20985;-74
2020/12/23 00:41:37;;;;;;;22.77;12.23;;;11.60;99.90;;;;;;5019357;28;20198;-75
2020/12/23 00:44:04;;;;;;;19.37;11.83;;;11.70;99.90;;;;;;5016151;28;20226;-75
2020/12/23 00:46:30;;;;;;;21.93;12.53;;;11.70;99.90;;;;;;5016696;28;20233;-74
2020/12/23 00:48:56;;;;;;;19.40;11.93;;;11.70;99.90;;;;;;5033371;28;20223;-74
2020/12/23 00:51:23;;;;;;;22.60;11.57;;;11.60;99.90;;;;;;5016061;28;20251;-75
2020/12/23 00:53:49;;;;;;;18.40;10.87;;;11.50;99.90;;;;;;5018514;28;20218;-74
2020/12/23 00:56:15;;;;;;;20.43;12.00;;;11.60;99.90;;;;;;5003484;28;20243;-74
2020/12/23 00:58:41;;;;;;;24.87;12.83;;;11.60;99.90;;;;;;5025552;28;20202;-75
2020/12/23 01:01:08;;;;;;;21.90;12.30;;;11.60;99.90;;;;;;5020249;28;20307;-75
2020/12/23 01:03:47;;;;;;;18.53;12.80;;;11.60;99.90;;;;;;5015458;28;20616;-74
2020/12/23 01:06:14;;;;;;;19.93;11.83;;;11.60;99.90;;;;;;5019630;28;20199;-75
2020/12/23 01:08:43;;;;;;;23.57;12.20;;;11.60;99.90;;;;;;5020831;28;20246;-75
2020/12/23 01:11:12;;;;;;;19.40;11.37;;;11.70;99.90;;;;;;5015741;28;20286;-75
2020/12/23 01:13:39;;;;;;;26.80;12.90;;;11.70;99.90;;;;;;5014396;28;20663;-74
2020/12/23 01:16:06;;;;;;;19.83;12.40;;;11.50;99.90;;;;;;5019077;28;20204;-74
2020/12/23 01:18:33;;;;;;;18.90;12.00;;;11.60;99.90;;;;;;5025559;28;20563;-74
2020/12/23 01:20:59;;;;;;;19.90;12.23;;;11.60;99.90;;;;;;5009919;28;20232;-75
2020/12/23 01:23:26;;;;;;;21.63;11.80;;;11.70;99.90;;;;;;5027390;28;20205;-74
2020/12/23 01:25:53;;;;;;;22.20;13.57;;;11.80;99.90;;;;;;5024020;28;20622;-75
2020/12/23 01:28:20;;;;;;;24.60;12.43;;;11.90;99.90;;;;;;5012475;28;20662;-75
2020/12/23 01:30:47;;;;;;;21.57;13.27;;;11.90;99.90;;;;;;5026883;28;20280;-74
2020/12/23 01:33:14;;;;;;;16.57;11.40;;;11.90;99.90;;;;;;5011747;28;20652;-75
2020/12/23 01:35:41;;;;;;;19.17;12.27;;;11.90;99.90;;;;;;5023931;28;20293;-75
2020/12/23 01:38:07;;;;;;;23.53;12.63;;;12.00;99.90;;;;;;5029766;28;20285;-75
2020/12/23 01:40:33;;;;;;;19.63;11.40;;;11.90;99.90;;;;;;5025591;28;20559;-75
2020/12/23 01:42:59;;;;;;;19.17;12.13;;;12.00;99.90;;;;;;5022941;28;20261;-75
2020/12/23 01:45:26;;;;;;;22.37;13.50;;;12.10;99.90;;;;;;5033873;28;20200;-75
2020/12/23 01:47:56;;;;;;;21.00;12.53;;;12.10;99.90;;;;;;5028071;28;20246;-75
2020/12/23 01:50:23;;;;;;;20.83;12.63;;;12.10;99.90;;;;;;5025672;28;20197;-75
2020/12/23 01:52:52;;;;;;;18.33;12.07;;;12.10;99.90;;;;;;5026883;28;20284;-75
2020/12/23 01:55:18;;;;;;;21.13;12.33;;;12.10;99.90;;;;;;5025958;28;20249;-75
2020/12/23 01:57:44;;;;;;;23.10;12.67;;;11.80;99.90;;;;;;5021441;28;20190;-75
2020/12/23 02:00:11;;;;;;;22.33;13.33;;;11.80;99.90;;;;;;5007893;28;20599;-75
2020/12/23 02:02:41;;;;;;;18.47;11.90;;;11.90;99.90;;;;;;5039341;28;20201;-75
2020/12/23 02:05:08;;;;;;;24.07;13.57;;;12.00;99.90;;;;;;5026748;28;20278;-75
2020/12/23 02:07:35;;;;;;;23.07;13.03;;;12.00;99.90;;;;;;5032200;28;20238;-75
2020/12/23 02:10:05;;;;;;;23.00;14.10;;;11.90;99.90;;;;;;5026341;28;20315;-74
2020/12/23 02:12:32;;;;;;;24.10;12.50;;;11.80;99.90;;;;;;5024384;28;20292;-75
2020/12/23 02:15:14;;;;;;;23.17;13.33;;;12.00;99.90;;;;;;5029370;28;20576;-75
2020/12/23 02:17:42;;;;;;;23.03;13.27;;;12.00;99.90;;;;;;5023277;28;20234;-75
2020/12/23 02:20:10;;;;;;;24.23;13.63;;;11.90;99.90;;;;;;5036485;28;20650;-76
2020/12/23 02:22:37;;;;;;;19.47;12.40;;;11.90;99.90;;;;;;5026833;28;20651;-75
2020/12/23 02:25:05;;;;;;;20.27;12.17;;;11.90;99.90;;;;;;5024346;28;20283;-75
2020/12/23 02:27:32;;;;;;;22.00;13.40;;;11.90;99.90;;;;;;5024917;28;20231;-75
2020/12/23 02:29:59;;;;;;;17.57;11.93;;;11.80;99.90;;;;;;5027589;28;20212;-75
2020/12/23 02:32:26;;;;;;;20.83;13.53;;;11.90;99.90;;;;;;5029498;28;20202;-75
2020/12/23 02:34:54;;;;;;;17.87;11.33;;;11.90;99.90;;;;;;5026891;28;20646;-75
2020/12/23 02:37:21;;;;;;;22.83;13.40;;;11.90;99.90;;;;;;5026149;28;20967;-75
2020/12/23 02:39:53;;;;;;;20.03;12.40;;;11.90;99.90;;;;;;5035955;28;20294;-75
2020/12/23 02:42:22;;;;;;;23.77;12.77;;;12.00;99.90;;;;;;5026201;28;20262;-75
2020/12/23 02:44:49;;;;;;;20.13;12.53;;;11.90;99.90;;;;;;5025482;28;20215;-75
2020/12/23 02:47:17;;;;;;;21.77;13.17;;;11.90;99.90;;;;;;5028960;28;20206;-75
2020/12/23 02:49:44;;;;;;;22.37;13.17;;;11.80;99.90;;;;;;5023056;28;20269;-75
2020/12/23 02:52:11;;;;;;;22.70;13.00;;;11.80;99.90;;;;;;5027945;28;20277;-75
2020/12/23 02:54:39;;;;;;;23.40;12.47;;;11.60;99.90;;;;;;5006261;28;20193;-75
2020/12/23 02:57:06;;;;;;;22.50;13.50;;;11.60;99.90;;;;;;5014647;28;20238;-75
2020/12/23 02:59:33;;;;;;;20.17;13.53;;;11.70;99.90;;;;;;5025462;28;20206;-75
2020/12/23 03:01:59;;;;;;;22.73;12.40;;;11.70;99.90;;;;;;5029570;28;20208;-75
2020/12/23 03:04:26;;;;;;;20.47;12.63;;;11.80;99.90;;;;;;5020250;28;20653;-75
2020/12/23 03:06:53;;;;;;;21.63;12.67;;;11.70;99.90;;;;;;5024820;28;20228;-75
2020/12/23 03:09:20;;;;;;;20.70;13.00;;;11.70;99.90;;;;;;5023144;28;20698;-74
2020/12/23 03:11:46;;;;;;;22.17;13.07;;;11.80;99.90;;;;;;5040418;28;20592;-75
2020/12/23 03:14:13;;;;;;;24.30;12.97;;;11.80;99.90;;;;;;5027806;28;20243;-75
2020/12/23 03:16:40;;;;;;;24.60;13.63;;;11.90;99.90;;;;;;5021826;28;20662;-75
2020/12/23 03:19:06;;;;;;;25.20;12.47;;;12.00;99.90;;;;;;5023837;28;20630;-75
2020/12/23 03:21:33;;;;;;;24.67;13.03;;;12.00;99.90;;;;;;5015921;28;20263;-74
2020/12/23 03:23:59;;;;;;;19.40;12.80;;;12.10;99.90;;;;;;5024204;28;20201;-75
2020/12/23 03:26:26;;;;;;;20.80;12.43;;;12.10;99.90;;;;;;5024715;28;20211;-75
2020/12/23 03:28:52;;;;;;;21.20;13.17;;;11.90;99.90;;;;;;5023162;28;20244;-75
2020/12/23 03:31:19;;;;;;;21.33;11.67;;;11.90;99.90;;;;;;5018181;28;20200;-75
2020/12/23 03:33:45;;;;;;;21.07;11.57;;;11.90;99.90;;;;;;5020886;28;20290;-75
2020/12/23 03:36:12;;;;;;;20.20;12.33;;;11.90;99.90;;;;;;5020714;28;20198;-75
2020/12/23 03:38:38;;;;;;;17.27;11.97;;;11.90;99.90;;;;;;5022330;28;20210;-75
2020/12/23 03:41:05;;;;;;;20.47;12.67;;;11.90;99.90;;;;;;5032267;28;20626;-75
2020/12/23 03:43:32;;;;;;;15.10;10.43;;;11.90;99.90;;;;;;5009146;28;20292;-75
2020/12/23 03:45:58;;;;;;;16.00;10.40;;;11.80;99.90;;;;;;5018105;28;20607;-75
2020/12/23 03:48:25;;;;;;;19.17;11.40;;;11.80;99.90;;;;;;5021691;28;20286;-75
2020/12/23 03:50:51;;;;;;;16.30;10.67;;;11.90;99.90;;;;;;5025547;28;20494;-75
2020/12/23 03:53:18;;;;;;;16.07;10.97;;;12.00;99.90;;;;;;5023727;28;20225;-75
2020/12/23 03:55:44;;;;;;;15.63;10.17;;;11.90;99.90;;;;;;5024337;28;20202;-75
2020/12/23 03:58:10;;;;;;;15.77;10.53;;;11.90;99.90;;;;;;5022985;28;20202;-75
2020/12/23 04:00:36;;;;;;;16.43;10.40;;;11.80;99.90;;;;;;5013130;28;20230;-75
2020/12/23 04:03:03;;;;;;;12.20;9.20;;;11.90;99.90;;;;;;5021667;28;20265;-75
2020/12/23 04:05:37;;;;;;;14.93;9.43;;;11.80;99.90;;;;;;5026138;28;20211;-75
2020/12/23 04:08:05;;;;;;;16.00;10.10;;;11.90;99.90;;;;;;5023584;28;20237;-75
2020/12/23 04:10:34;;;;;;;15.23;9.93;;;11.90;99.90;;;;;;5023300;28;20201;-74
2020/12/23 04:13:01;;;;;;;16.43;9.40;;;11.90;99.90;;;;;;5008481;28;20271;-75
2020/12/23 04:15:27;;;;;;;15.00;9.03;;;12.00;99.90;;;;;;5025412;28;20222;-75
2020/12/23 04:17:54;;;;;;;14.50;9.70;;;12.00;99.90;;;;;;5017789;28;20304;-75
2020/12/23 04:20:22;;;;;;;10.50;8.47;;;12.00;99.90;;;;;;5007477;28;20687;-75
2020/12/23 04:22:48;;;;;;;12.77;7.60;;;12.00;99.90;;;;;;5021883;28;20205;-75
2020/12/23 04:25:14;;;;;;;11.63;7.37;;;12.00;99.90;;;;;;5007826;28;20199;-76
2020/12/23 04:27:41;;;;;;;12.13;8.70;;;11.90;99.90;;;;;;5006830;28;20206;-75
2020/12/23 04:30:08;;;;;;;9.37;6.93;;;11.90;99.90;;;;;;5024001;28;20267;-75
2020/12/23 04:32:35;;;;;;;10.00;6.87;;;11.80;99.90;;;;;;5021581;28;20260;-76
2020/12/23 04:35:03;;;;;;;10.83;6.47;;;11.80;99.90;;;;;;5023652;28;20198;-74
2020/12/23 04:37:32;;;;;;;9.23;6.57;;;11.80;99.90;;;;;;5025334;28;20623;-74
2020/12/23 04:39:58;;;;;;;9.43;6.97;;;11.80;99.90;;;;;;5020399;28;20274;-74
2020/12/23 04:42:25;;;;;;;8.33;6.00;;;11.90;99.90;;;;;;5022694;28;20233;-74
2020/12/23 04:44:51;;;;;;;8.87;6.10;;;11.90;99.90;;;;;;5041649;28;20198;-74
2020/12/23 04:47:24;;;;;;;6.50;5.40;;;11.90;99.90;;;;;;5024080;28;20363;-74
2020/12/23 04:49:54;;;;;;;9.37;5.80;;;12.00;99.90;;;;;;5022819;28;20676;-74
2020/12/23 04:52:29;;;;;;;9.00;5.70;;;12.00;99.90;;;;;;5023240;28;20217;-74
2020/12/23 04:54:56;;;;;;;8.60;5.53;;;11.90;99.90;;;;;;5020713;28;20249;-75
2020/12/23 04:57:25;;;;;;;7.17;4.77;;;11.90;99.90;;;;;;5035771;28;20273;-74
2020/12/23 04:59:52;;;;;;;5.80;4.83;;;12.00;99.90;;;;;;5004947;28;20746;-74
2020/12/23 05:02:18;;;;;;;5.90;4.60;;;11.90;99.90;;;;;;5038839;28;20563;-76
2020/12/23 05:04:44;;;;;;;6.23;4.10;;;11.90;99.90;;;;;;5020885;28;20246;-75
2020/12/23 05:07:11;;;;;;;6.93;4.60;;;11.90;99.90;;;;;;5016259;28;20215;-74
2020/12/23 05:09:37;;;;;;;4.47;3.87;;;11.90;99.90;;;;;;5021015;28;20957;-74
2020/12/23 05:12:03;;;;;;;5.63;3.93;;;12.00;99.90;;;;;;5007270;28;20214;-74
2020/12/23 05:14:31;;;;;;;6.37;3.73;;;11.90;99.90;;;;;;5023277;28;20207;-74
2020/12/23 05:16:57;;;;;;;5.67;3.63;;;11.80;99.90;;;;;;5024533;28;20205;-74
2020/12/23 05:19:23;;;;;;;4.57;3.23;;;11.80;99.90;;;;;;5019299;28;20366;-74
2020/12/23 05:21:50;;;;;;;4.37;3.80;;;11.80;99.90;;;;;;5022931;28;20302;-74
2020/12/23 05:24:16;;;;;;;4.70;3.33;;;11.80;99.90;;;;;;5022280;28;20275;-74
2020/12/23 05:26:45;;;;;;;4.23;3.17;;;11.80;99.90;;;;;;5022496;28;20205;-74
2020/12/23 05:29:13;;;;;;;4.07;3.13;;;11.80;99.90;;;;;;5020999;28;20232;-76
2020/12/23 05:31:40;;;;;;;5.57;3.20;;;11.80;99.90;;;;;;5024779;28;20197;-75
2020/12/23 05:34:07;;;;;;;5.47;3.13;;;11.80;99.90;;;;;;5020408;28;20254;-75
2020/12/23 05:36:38;;;;;;;5.87;3.53;;;11.90;99.90;;;;;;5021449;28;20208;-76
2020/12/23 05:39:06;;;;;;;5.07;3.60;;;11.90;99.90;;;;;;5018588;28;20193;-73
2020/12/23 05:41:35;;;;;;;4.27;3.57;;;12.00;99.90;;;;;;5020252;28;20262;-74
2020/12/23 05:44:12;;;;;;;5.73;2.97;;;11.90;99.90;;;;;;5022672;28;20291;-74
2020/12/23 05:46:39;;;;;;;4.47;2.70;;;11.90;99.90;;;;;;5020031;28;20300;-77
2020/12/23 05:49:07;;;;;;;4.83;3.57;;;11.90;99.90;;;;;;5020573;28;20302;-74
2020/12/23 05:51:38;;;;;;;6.57;3.63;;;12.00;99.90;;;;;;5026788;28;20203;-76
2020/12/23 05:54:05;;;;;;;6.13;3.70;;;12.00;99.90;;;;;;5020459;28;20232;-74
2020/12/23 05:56:37;;;;;;;5.50;3.43;;;12.00;99.90;;;;;;5020168;28;20288;-74
2020/12/23 05:59:04;;;;;;;7.83;3.83;;;12.00;99.90;;;;;;5025310;28;20220;-74
2020/12/23 06:01:39;;;;;;;4.93;3.70;;;12.00;99.90;;;;;;5021563;28;20282;-73
2020/12/23 06:04:13;;;;;;;5.57;4.30;;;11.90;99.90;;;;;;5023349;28;20365;-73
2020/12/23 06:07:03;;;;;;;5.20;3.80;;;12.00;99.90;;;;;;5025601;28;20287;-73
2020/12/23 06:09:36;;;;;;;5.27;3.40;;;12.00;99.90;;;;;;5018525;28;20250;-73
2020/12/23 06:12:22;;;;;;;5.53;3.53;;;12.00;99.90;;;;;;5026110;28;20551;-73
2020/12/23 06:14:56;;;;;;;4.40;3.47;;;12.00;99.90;;;;;;5030189;28;20215;-74
2020/12/23 06:17:23;;;;;;;5.97;3.67;;;12.00;99.90;;;;;;5025254;28;20576;-73
2020/12/23 06:19:55;;;;;;;5.17;3.37;;;12.00;99.90;;;;;;5028564;28;20236;-74
2020/12/23 06:22:24;;;;;;;5.77;3.83;;;12.00;99.90;;;;;;5027837;28;20234;-74
2020/12/23 06:24:50;;;;;;;6.03;3.47;;;12.00;99.90;;;;;;5017376;28;20206;-74
2020/12/23 06:27:17;;;;;;;4.53;3.10;;;12.00;99.90;;;;;;5031110;28;20275;-74
2020/12/23 06:29:45;;;;;;;4.87;3.50;;;12.00;99.90;;;;;;5028480;28;20747;-73
2020/12/23 06:32:22;;;;;;;4.70;3.50;;;12.00;99.90;;;;;;5019383;28;20195;-74
2020/12/23 06:34:59;;;;;;;6.80;3.23;;;12.00;99.90;;;;;;5018218;28;20200;-74
2020/12/23 06:37:34;;;;;;;5.07;2.77;;;12.00;99.90;;;;;;5028715;28;20271;-74
2020/12/23 06:40:08;;;;;;;3.60;2.80;;;12.00;99.90;;;;;;5026812;28;20203;-74
2020/12/23 06:42:35;;;;;;;4.20;3.03;;;12.00;99.90;;;;;;5027363;28;20243;-74
2020/12/23 06:45:08;;;;;;;5.57;2.97;;;12.00;99.90;;;;;;5036871;28;20743;-73
2020/12/23 06:47:36;;;;;;;6.60;2.87;;;12.00;99.90;;;;;;5027563;28;20623;-74
2020/12/23 06:50:11;;;;;;;3.90;2.50;;;12.00;99.90;;;;;;5027351;28;20841;-73
2020/12/23 06:52:39;;;;;;;5.97;2.70;;;12.00;99.90;;;;;;5025621;28;20833;-74
2020/12/23 06:55:16;;;;;;;4.90;3.10;;;12.00;99.90;;;;;;5037455;28;20590;-73
2020/12/23 06:57:44;;;;;;;5.53;2.47;;;11.90;99.90;;;;;;5007524;28;20516;-74
2020/12/23 07:00:23;;;;;;;5.43;2.80;;;12.10;99.90;;;;;;5020940;28;20632;-73
2020/12/23 07:03:05;;;;;;;2.83;2.20;;;12.00;99.90;;;;;;5023251;28;20235;-74
2020/12/23 07:05:35;;;;;;;5.07;2.67;;;12.00;99.90;;;;;;5023688;28;20553;-73
2020/12/23 07:08:04;;;;;;;3.43;2.03;;;12.00;99.90;;;;;;5027184;28;20200;-73
2020/12/23 07:11:00;;;;;;;3.83;2.13;;;12.00;99.90;;;;;;5029869;28;20706;-73
2020/12/23 07:13:27;;;;;;;3.33;2.03;;;12.00;99.90;;;;;;5022012;28;20632;-74
2020/12/23 07:15:58;;;;;;;6.43;1.90;;;12.00;99.90;;;;;;5057173;28;20215;-74
2020/12/23 07:18:29;;;;;;;3.23;2.10;;;12.00;99.90;;;;;;5022945;28;20338;-74
2020/12/23 07:20:59;;;;;;;2.97;2.20;;;12.10;99.90;;;;;;5023969;28;20286;-74
2020/12/23 07:23:28;;;;;;;2.80;1.57;;;12.00;99.90;;;;;;5025646;28;20307;-74
2020/12/23 07:25:56;;;;;;;2.27;1.60;;;12.00;99.90;;;;;;5024858;28;20863;-73
2020/12/23 07:28:38;;;;;;;12.77;2.37;;;12.00;99.90;;;;;;5023339;28;21499;-73
2020/12/23 07:31:05;;;;;;;3.13;1.70;;;12.00;99.90;;;;;;5023897;28;20220;-74
2020/12/23 07:33:33;;;;;;;2.90;1.70;;;12.00;99.90;;;;;;5050964;28;20552;-73
2020/12/23 07:36:01;;;;;;;3.87;2.03;;;11.90;99.90;;;;;;5026050;28;20292;-73
2020/12/23 07:38:31;;;;;;;2.40;1.37;;;12.00;99.90;;;;;;5022921;28;20731;-74
2020/12/23 07:40:57;;;;;;;3.07;1.90;;;11.90;99.90;;;;;;5022908;28;20235;-74
2020/12/23 07:43:24;;;;;;;4.63;2.70;;;12.00;99.90;;;;;;5033377;28;20575;-74
2020/12/23 07:45:50;;;;;;;3.20;1.70;;;11.90;99.90;;;;;;5029563;28;20346;-74
2020/12/23 07:48:18;;;;;;;3.37;1.57;;;11.90;99.90;;;;;;5024526;28;20660;-74
2020/12/23 07:50:45;;;;;;;4.83;1.90;;;11.90;99.90;;;;;;5025406;28;20201;-74
2020/12/23 07:53:23;;;;;;;3.67;1.60;;;11.90;99.90;;;;;;5025230;28;20280;-73
2020/12/23 07:56:09;;;;;;;4.93;1.83;;;11.90;99.90;;;;;;5019928;28;20263;-74
2020/12/23 07:58:36;;;;;;;4.20;2.10;;;11.90;99.90;;;;;;5023221;28;20239;-73
2020/12/23 08:01:07;;;;;;;2.70;1.73;;;11.90;99.90;;;;;;5028372;28;20637;-77
2020/12/23 08:03:34;;;;;;;2.87;2.03;;;11.90;99.90;;;;;;5034137;28;20286;-73
2020/12/23 08:06:11;;;;;;;3.40;1.87;;;11.90;99.90;;;;;;5025286;28;20255;-73
2020/12/23 08:08:39;;;;;;;2.67;2.07;;;11.90;99.90;;;;;;5017957;28;20683;-73
2020/12/23 08:11:09;;;;;;;3.13;1.80;;;11.90;99.90;;;;;;5024301;28;20245;-74
2020/12/23 08:13:37;;;;;;;3.20;2.13;;;11.90;99.90;;;;;;5018912;28;20242;-78
2020/12/23 08:16:10;;;;;;;6.27;2.03;;;11.90;99.90;;;;;;5018643;28;20597;-76
2020/12/23 08:18:38;;;;;;;2.80;2.20;;;11.90;99.90;;;;;;5019076;28;20211;-76
2020/12/23 08:21:09;;;;;;;3.17;2.20;;;12.00;99.90;;;;;;5017057;28;20290;-73
2020/12/23 08:23:35;;;;;;;3.13;2.00;;;11.90;99.90;;;;;;5029296;28;20295;-74
2020/12/23 08:26:03;;;;;;;2.90;2.00;;;11.90;99.90;;;;;;5020055;28;20236;-74
2020/12/23 08:28:36;;;;;;;4.87;2.27;;;11.90;99.90;;;;;;5021074;28;20204;-74
2020/12/23 08:31:04;;;;;;;3.00;1.80;;;11.90;99.90;;;;;;5016348;28;20193;-75
2020/12/23 08:33:32;;;;;;;2.87;1.40;;;12.00;99.90;;;;;;5012485;28;20259;-74
2020/12/23 08:36:01;;;;;;;4.67;2.07;;;12.00;99.90;;;;;;5019231;28;20196;-74
2020/12/23 08:38:37;;;;;;;1.97;1.60;;;11.90;99.90;;;;;;5014003;28;20258;-74
2020/12/23 08:41:14;;;;;;;2.97;1.70;;;12.00;99.90;;;;;;5019499;28;20200;-74
2020/12/23 08:43:47;;;;;;;3.17;1.90;;;11.90;99.90;;;;;;5018790;28;20359;-73
2020/12/23 08:46:39;;;;;;;4.30;1.77;;;11.90;99.90;;;;;;5019018;28;20220;-74
2020/12/23 08:49:06;;;;;;;2.33;1.63;;;11.90;99.90;;;;;;5012330;28;20247;-74
2020/12/23 08:51:35;;;;;;;2.03;1.57;;;11.90;99.90;;;;;;5025435;28;20214;-74
2020/12/23 08:54:12;;;;;;;2.93;1.87;;;11.90;99.90;;;;;;5015026;28;20606;-74
2020/12/23 08:56:48;;;;;;;3.17;2.00;;;11.90;99.90;;;;;;5012418;28;20230;-75
2020/12/23 08:59:15;;;;;;;2.20;1.90;;;11.90;99.90;;;;;;5018754;28;20232;-73
2020/12/23 09:01:44;;;;;;;2.53;1.50;;;11.90;99.90;;;;;;5009640;28;20309;-74
2020/12/23 09:04:12;;;;;;;3.07;2.37;;;11.90;99.90;;;;;;5003002;28;20719;-74
2020/12/23 09:06:40;;;;;;;3.93;2.60;;;11.90;99.90;;;;;;5003419;28;20251;-74
2020/12/23 09:09:12;;;;;;;2.80;2.00;;;11.90;99.90;;;;;;5016689;28;20224;-74
2020/12/23 09:11:49;;;;;;;3.43;2.43;;;11.90;99.90;;;;;;5021907;28;20258;-74
2020/12/23 09:14:27;;;;;;;2.83;2.10;;;11.90;99.90;;;;;;5035028;28;20188;-75
2020/12/23 09:17:16;;;;;;;2.70;2.00;;;11.90;99.90;;;;;;5027571;28;20208;-74
2020/12/23 09:20:03;;;;;;;4.10;2.20;;;11.90;99.90;;;;;;5025862;28;20282;-74
2020/12/23 09:22:38;;;;;;;4.07;2.30;;;11.90;99.90;;;;;;5016547;28;20219;-75
2020/12/23 09:25:17;;;;;;;4.50;2.80;;;11.90;99.90;;;;;;5030897;28;20648;-75
2020/12/23 09:27:46;;;;;;;5.33;2.63;;;11.90;99.90;;;;;;5020940;28;20566;-75
2020/12/23 09:30:13;;;;;;;2.90;2.33;;;11.90;99.90;;;;;;5023505;28;20241;-75
2020/12/23 09:32:53;;;;;;;4.13;2.23;;;12.00;99.90;;;;;;5015420;28;20278;-74
2020/12/23 09:35:23;;;;;;;2.93;2.07;;;11.90;99.90;;;;;;5031254;28;20247;-75
2020/12/23 09:38:08;;;;;;;2.90;2.07;;;11.90;99.90;;;;;;5017945;28;20220;-74
2020/12/23 09:40:37;;;;;;;3.77;2.97;;;12.00;99.90;;;;;;5021040;28;20567;-74
2020/12/23 09:43:08;;;;;;;3.83;2.93;;;12.00;99.90;;;;;;5057780;28;20226;-75
2020/12/23 09:45:35;;;;;;;2.80;2.10;;;12.00;99.90;;;;;;5027518;28;20209;-74
2020/12/23 09:48:02;;;;;;;2.70;2.30;;;12.00;99.90;;;;;;5020458;28;20204;-74
2020/12/23 09:50:28;;;;;;;3.47;2.17;;;12.00;99.90;;;;;;5007531;28;20215;-75
2020/12/23 09:52:54;;;;;;;4.03;2.40;;;12.00;99.90;;;;;;5035568;28;20265;-75
2020/12/23 09:55:22;;;;;;;3.73;2.63;;;12.00;99.90;;;;;;5009339;28;20204;-74
2020/12/23 09:57:48;;;;;;;3.00;2.23;;;12.00;99.90;;;;;;5029740;28;20232;-75
2020/12/23 10:00:15;;;;;;;3.57;2.50;;;12.00;99.90;;;;;;5018664;28;20212;-75
2020/12/23 10:02:41;;;;;;;5.03;2.67;;;12.00;99.90;;;;;;5021771;28;20608;-74
2020/12/23 10:05:08;;;;;;;4.20;2.43;;;12.00;99.90;;;;;;5019557;28;20201;-75
2020/12/23 10:07:34;;;;;;;3.53;2.60;;;12.10;99.90;;;;;;5007787;28;20212;-74
2020/12/23 10:10:00;;;;;;;3.10;2.30;;;12.10;99.90;;;;;;5018445;28;20357;-76
2020/12/23 10:12:27;;;;;;;3.07;2.40;;;12.10;99.90;;;;;;5010655;28;20201;-76
2020/12/23 10:14:53;;;;;;;2.60;2.00;;;12.10;99.90;;;;;;5008604;28;20215;-75
2020/12/23 10:17:19;;;;;;;3.20;2.20;;;12.00;99.90;;;;;;5023276;28;20404;-75
2020/12/23 10:19:46;;;;;;;3.00;2.10;;;12.10;99.90;;;;;;5008382;28;20245;-76
2020/12/23 10:22:12;;;;;;;3.30;2.50;;;12.10;99.90;;;;;;5021580;28;20215;-76
2020/12/23 10:24:39;;;;;;;4.27;2.50;;;12.20;99.90;;;;;;5023168;28;20200;-77
2020/12/23 10:27:06;;;;;;;2.73;1.77;;;12.20;99.90;;;;;;5039838;28;20224;-75
2020/12/23 10:29:32;;;;;;;2.77;2.20;;;12.20;99.90;;;;;;5027447;28;20646;-76
2020/12/23 10:31:59;;;;;;;3.40;2.60;;;12.30;99.90;;;;;;5022220;28;20724;-76
2020/12/23 10:34:25;;;;;;;4.00;2.60;;;12.30;99.90;;;;;;5023418;28;20216;-75
2020/12/23 10:36:52;;;;;;;3.30;2.37;;;12.40;99.90;;;;;;5004652;28;20248;-76
2020/12/23 10:39:18;;;;;;;2.63;2.13;;;12.30;99.90;;;;;;5001617;28;20263;-76
2020/12/23 10:41:45;;;;;;;2.50;2.30;;;12.20;99.90;;;;;;5034292;28;20576;-76
2020/12/23 10:44:12;;;;;;;4.37;2.77;;;12.30;99.90;;;;;;5013904;28;20296;-76
2020/12/23 10:46:38;;;;;;;2.93;2.20;;;12.30;99.90;;;;;;5024731;28;20204;-76
2020/12/23 10:49:05;;;;;;;3.70;2.57;;;12.10;99.90;;;;;;5010392;28;20576;-77
2020/12/23 10:51:32;;;;;;;3.73;2.13;;;12.10;99.90;;;;;;5005843;28;20273;-76
2020/12/23 10:53:58;;;;;;;2.90;2.53;;;12.10;99.90;;;;;;5010987;28;20686;-75
2020/12/23 10:56:25;;;;;;;3.53;2.13;;;12.10;99.90;;;;;;5022617;28;20200;-76
2020/12/23 10:58:51;;;;;;;3.07;2.20;;;12.10;99.90;;;;;;5009402;28;20257;-76
2020/12/23 11:01:20;;;;;;;2.77;1.93;;;12.00;99.90;;;;;;5022592;28;20295;-78
2020/12/23 11:03:46;;;;;;;3.40;2.47;;;12.00;99.90;;;;;;5019924;28;20277;-78
2020/12/23 11:06:16;;;;;;;3.30;2.80;;;12.00;99.90;;;;;;5015549;28;20251;-76
2020/12/23 11:08:42;;;;;;;3.27;2.80;;;12.00;99.90;;;;;;5010738;28;20253;-76
2020/12/23 11:11:13;;;;;;;4.27;3.00;;;12.00;99.90;;;;;;5021127;28;20249;-75
2020/12/23 11:13:45;;;;;;;5.80;2.40;;;11.90;99.90;;;;;;5019713;28;20612;-75
2020/12/23 11:16:18;;;;;;;2.73;2.30;;;11.90;99.90;;;;;;5013903;28;20228;-75
2020/12/23 11:18:48;;;;;;;2.87;2.07;;;12.00;99.90;;;;;;5049938;28;20200;-76
2020/12/23 11:21:15;;;;;;;3.97;2.47;;;12.00;99.90;;;;;;5010342;28;20228;-76
2020/12/23 11:23:42;;;;;;;3.30;2.90;;;12.00;99.90;;;;;;5022759;28;20209;-76
2020/12/23 11:26:16;;;;;;;3.77;2.87;;;12.00;99.90;;;;;;5026478;28;20222;-77
2020/12/23 11:28:52;;;;;;;4.27;2.23;;;12.00;99.90;;;;;;5023990;28;20203;-76
2020/12/23 11:31:18;;;;;;;4.60;2.70;;;12.00;99.90;;;;;;5012971;28;20203;-77
2020/12/23 11:33:44;;;;;;;2.40;2.20;;;12.00;99.90;;;;;;5020660;28;20201;-76
2020/12/23 11:36:13;;;;;;;2.20;1.83;;;12.00;99.90;;;;;;5018420;28;20199;-83
2020/12/23 11:38:40;;;;;;;5.90;2.17;;;12.10;99.90;;;;;;5015302;28;20215;-77
2020/12/23 11:41:07;;;;;;;2.30;1.93;;;12.10;99.90;;;;;;5018119;28;20595;-76
2020/12/23 11:43:34;;;;;;;1.60;1.50;;;12.10;99.90;;;;;;5018833;28;20279;-76
2020/12/23 11:46:03;;;;;;;2.17;1.87;;;12.10;99.90;;;;;;5006154;28;20271;-76
2020/12/23 11:48:29;;;;;;;2.80;1.90;;;12.00;99.90;;;;;;5028800;28;20212;-75
2020/12/23 11:50:56;;;;;;;2.77;1.70;;;12.10;99.90;;;;;;5048879;28;20243;-76
2020/12/23 11:53:23;;;;;;;3.20;1.80;;;12.10;99.90;;;;;;5010755;28;20208;-77
2020/12/23 11:55:50;;;;;;;1.30;1.20;;;12.10;99.90;;;;;;5022348;28;20193;-76
2020/12/23 11:58:16;;;;;;;1.27;0.90;;;12.10;99.90;;;;;;5009507;28;20323;-77
2020/12/23 12:00:43;;;;;;;1.00;0.90;;;12.10;99.90;;;;;;5013664;28;20208;-76
2020/12/23 12:03:13;;;;;;;1.97;1.20;;;12.10;99.90;;;;;;5047680;28;20212;-76
2020/12/23 12:05:40;;;;;;;0.80;0.77;;;12.10;99.90;;;;;;5010879;28;20196;-75
2020/12/23 12:08:08;;;;;;;1.63;1.40;;;12.10;99.90;;;;;;5008894;28;20203;-76
2020/12/23 12:10:51;;;;;;;0.63;0.63;;;12.10;99.90;;;;;;5009664;28;21325;-75
2020/12/23 12:13:17;;;;;;;2.70;1.07;;;12.10;99.90;;;;;;5019382;28;20295;-75
2020/12/23 12:15:44;;;;;;;0.90;0.90;;;12.10;99.90;;;;;;5031094;28;20216;-75
2020/12/23 12:18:10;;;;;;;1.43;0.80;;;12.10;99.90;;;;;;5015579;28;20612;-76
2020/12/23 12:20:36;;;;;;;0.70;0.63;;;12.10;99.90;;;;;;5033292;28;20287;-76
2020/12/23 12:23:03;;;;;;;1.73;0.70;;;12.00;99.90;;;;;;5014526;28;20629;-81
2020/12/23 12:25:30;;;;;;;0.97;0.70;;;12.00;99.90;;;;;;5037056;28;20564;-76
2020/12/23 12:27:56;;;;;;;0.80;0.60;;;12.10;99.90;;;;;;5018285;28;20564;-76
2020/12/23 12:30:23;;;;;;;1.00;0.60;;;12.10;99.90;;;;;;5018598;28;20265;-76
2020/12/23 12:32:49;;;;;;;1.00;0.60;;;12.10;99.90;;;;;;5011873;28;20231;-77
2020/12/23 12:35:16;;;;;;;1.27;0.80;;;12.20;99.90;;;;;;5015811;28;20265;-76
2020/12/23 12:37:42;;;;;;;0.93;0.50;;;12.20;99.90;;;;;;5027359;28;20250;-75
2020/12/23 12:40:08;;;;;;;1.17;0.87;;;12.20;99.90;;;;;;5021550;28;20585;-75
2020/12/23 12:42:34;;;;;;;1.10;0.67;;;12.20;99.90;;;;;;5015205;28;20295;-77
2020/12/23 12:45:01;;;;;;;1.17;0.70;;;12.10;99.90;;;;;;5019480;28;20641;-78
2020/12/23 12:47:27;;;;;;;0.80;0.73;;;12.10;99.90;;;;;;5005782;28;20217;-76
2020/12/23 12:49:53;;;;;;;1.90;0.83;;;12.00;99.90;;;;;;5004569;28;20734;-76